Time;durP1;ratioP1;P1;durP2;ratioP2;P2;SDS_P1;SDS_P2;PMS_P1;PMS_P2;Temp;Humidity;BMP_temperature;BMP_pressure;BME280_temperature;BME280_humidity;BME280_pressure;Samples;Min_cycle;Max_cycle;Signal;HPM_P1;HPM_P2
2022/10/10 00:00:36;;;;;;;13.00;8.37;;;11.50;99.90;;;;;;5010639;28;20446;-60
2022/10/10 00:03:02;;;;;;;16.13;8.90;;;11.50;99.90;;;;;;5016619;28;20453;-60
2022/10/10 00:05:27;;;;;;;12.60;9.33;;;11.50;99.90;;;;;;5027931;28;20951;-61
2022/10/10 00:07:53;;;;;;;13.60;8.73;;;11.50;99.90;;;;;;5009401;28;20431;-60
2022/10/10 00:10:19;;;;;;;10.67;8.03;;;11.40;99.90;;;;;;5024659;28;20186;-60
2022/10/10 00:12:45;;;;;;;16.30;9.50;;;11.40;99.90;;;;;;5014302;28;20221;-58
2022/10/10 00:15:12;;;;;;;8.70;7.03;;;11.40;99.90;;;;;;5025378;28;20587;-60
2022/10/10 00:17:39;;;;;;;13.60;7.60;;;11.40;99.90;;;;;;5017458;28;20258;-61
2022/10/10 00:20:05;;;;;;;12.00;7.73;;;11.40;99.90;;;;;;5024998;28;20439;-61
2022/10/10 00:22:31;;;;;;;22.37;8.00;;;11.30;99.90;;;;;;5025749;28;20500;-60
2022/10/10 00:24:57;;;;;;;10.60;7.40;;;11.30;99.90;;;;;;5025789;28;20835;-61
2022/10/10 00:27:22;;;;;;;10.67;7.33;;;11.30;99.90;;;;;;5024739;28;20168;-60
2022/10/10 00:29:48;;;;;;;11.50;7.47;;;11.30;99.90;;;;;;5025917;28;20183;-59
2022/10/10 00:32:14;;;;;;;17.43;7.80;;;11.30;99.90;;;;;;5017226;28;20550;-62
2022/10/10 00:34:39;;;;;;;15.23;7.83;;;11.30;99.90;;;;;;5017357;28;20185;-61
2022/10/10 00:37:05;;;;;;;12.20;8.17;;;11.30;99.90;;;;;;5027033;28;20659;-60
2022/10/10 00:39:30;;;;;;;13.33;7.80;;;11.20;99.90;;;;;;4997599;28;20222;-61
2022/10/10 00:41:56;;;;;;;13.30;8.20;;;11.20;99.90;;;;;;5022992;28;20211;-62
2022/10/10 00:44:22;;;;;;;13.77;7.67;;;11.20;99.90;;;;;;5025780;28;20631;-61
2022/10/10 00:46:47;;;;;;;13.83;8.57;;;11.20;99.90;;;;;;5021006;28;20180;-60
2022/10/10 00:49:21;;;;;;;18.40;8.40;;;11.20;99.90;;;;;;5025718;28;20176;-61
2022/10/10 00:51:49;;;;;;;13.10;8.10;;;11.20;99.90;;;;;;5019790;28;20195;-61
2022/10/10 00:54:16;;;;;;;14.90;8.67;;;11.20;99.90;;;;;;5023783;28;20798;-62
2022/10/10 00:56:56;;;;;;;11.27;8.33;;;11.20;99.90;;;;;;5024111;28;20458;-62
2022/10/10 00:59:23;;;;;;;13.53;8.30;;;11.20;99.90;;;;;;5025961;28;20848;-60
2022/10/10 01:01:49;;;;;;;11.67;8.23;;;11.20;99.90;;;;;;5025203;28;20462;-61
2022/10/10 01:04:38;;;;;;;13.97;7.90;;;11.20;99.90;;;;;;5025434;28;20430;-61
2022/10/10 01:07:09;;;;;;;16.03;8.97;;;11.20;99.90;;;;;;5020454;28;20180;-61
2022/10/10 01:09:38;;;;;;;10.80;7.57;;;11.20;99.90;;;;;;5022431;28;20434;-60
2022/10/10 01:12:23;;;;;;;12.10;8.27;;;11.20;99.90;;;;;;5025360;28;21174;-62
2022/10/10 01:15:25;;;;;;;18.53;8.90;;;11.20;99.90;;;;;;5019982;28;20438;-61
2022/10/10 01:17:56;;;;;;;16.73;8.40;;;11.20;99.90;;;;;;4903106;28;20598;-62
2022/10/10 01:20:43;;;;;;;16.40;7.90;;;11.20;99.90;;;;;;5004261;28;20592;-62
2022/10/10 01:23:53;;;;;;;10.37;7.73;;;11.10;99.90;;;;;;5020772;28;20433;-61
2022/10/10 01:26:27;;;;;;;13.30;8.13;;;11.10;99.90;;;;;;4976207;28;20426;-61
2022/10/10 01:29:14;;;;;;;13.23;7.43;;;11.10;99.90;;;;;;5028343;28;20401;-62
2022/10/10 01:31:45;;;;;;;12.27;8.50;;;11.10;99.90;;;;;;5025460;28;20469;-63
2022/10/10 01:34:16;;;;;;;13.90;7.97;;;11.10;99.90;;;;;;5007442;28;20426;-59
2022/10/10 01:36:49;;;;;;;12.03;8.43;;;11.10;99.90;;;;;;5027486;28;20407;-61
2022/10/10 01:39:20;;;;;;;10.87;7.63;;;11.10;99.90;;;;;;5027707;28;20995;-61
2022/10/10 01:41:55;;;;;;;12.27;8.53;;;11.10;99.90;;;;;;5026777;28;20473;-61
2022/10/10 01:44:21;;;;;;;14.27;7.20;;;11.10;99.90;;;;;;5028684;28;20501;-61
2022/10/10 01:46:47;;;;;;;23.97;7.27;;;11.10;99.90;;;;;;5026386;28;20517;-61
2022/10/10 01:49:13;;;;;;;14.97;8.33;;;11.10;99.90;;;;;;5034894;28;20456;-62
2022/10/10 01:52:00;;;;;;;8.53;7.30;;;11.10;99.90;;;;;;5026814;28;20575;-61
2022/10/10 01:54:54;;;;;;;12.60;7.83;;;11.10;99.90;;;;;;5030231;28;20230;-60
2022/10/10 01:57:50;;;;;;;13.47;8.10;;;11.10;99.90;;;;;;5009770;28;20510;-59
2022/10/10 02:00:18;;;;;;;9.73;6.77;;;11.10;99.90;;;;;;5026062;28;20532;-61
2022/10/10 02:02:58;;;;;;;10.97;7.53;;;11.10;99.90;;;;;;5029922;28;20481;-62
2022/10/10 02:05:47;;;;;;;11.47;8.40;;;11.10;99.90;;;;;;5028999;28;20430;-61
2022/10/10 02:08:17;;;;;;;10.40;7.53;;;11.10;99.90;;;;;;5027719;28;20847;-62
2022/10/10 02:10:54;;;;;;;13.37;7.47;;;11.10;99.90;;;;;;5022775;28;20956;-62
2022/10/10 02:13:22;;;;;;;11.00;8.03;;;11.10;99.90;;;;;;5028941;28;20433;-61
2022/10/10 02:15:52;;;;;;;10.13;6.67;;;11.10;99.90;;;;;;5028353;28;20449;-61
2022/10/10 02:18:20;;;;;;;10.93;7.60;;;11.10;99.90;;;;;;5026992;28;20573;-61
2022/10/10 02:20:47;;;;;;;11.73;7.77;;;11.10;99.90;;;;;;5026273;28;20553;-60
2022/10/10 02:23:16;;;;;;;15.00;8.70;;;11.10;99.90;;;;;;5028279;28;20953;-61
2022/10/10 02:25:46;;;;;;;15.73;8.40;;;11.10;99.90;;;;;;5026128;28;20430;-61
2022/10/10 02:28:21;;;;;;;14.00;8.00;;;11.10;99.90;;;;;;5027461;28;20426;-62
2022/10/10 02:30:50;;;;;;;8.80;7.20;;;11.10;99.90;;;;;;5023520;28;20982;-61
2022/10/10 02:33:21;;;;;;;14.57;8.70;;;11.10;99.90;;;;;;5025095;28;20967;-61
2022/10/10 02:35:49;;;;;;;18.20;10.57;;;11.10;99.90;;;;;;5029615;28;20441;-60
2022/10/10 02:38:16;;;;;;;12.70;8.97;;;11.10;99.90;;;;;;5025958;28;20410;-60
2022/10/10 02:40:46;;;;;;;11.37;8.70;;;11.10;99.90;;;;;;5028874;28;20458;-62
2022/10/10 02:43:13;;;;;;;10.07;7.47;;;11.10;99.90;;;;;;5026556;28;20434;-60
2022/10/10 02:45:39;;;;;;;10.97;8.20;;;11.10;99.90;;;;;;5026944;28;20466;-61
2022/10/10 02:48:05;;;;;;;15.97;8.60;;;11.00;99.90;;;;;;5029201;28;20434;-62
2022/10/10 02:50:31;;;;;;;16.00;8.50;;;11.00;99.90;;;;;;5027039;28;20429;-61
2022/10/10 02:52:57;;;;;;;14.00;7.70;;;11.00;99.90;;;;;;5023720;28;20203;-59
2022/10/10 02:55:23;;;;;;;11.33;7.70;;;11.00;99.90;;;;;;5028819;28;20207;-60
2022/10/10 02:57:49;;;;;;;11.90;8.00;;;11.00;99.90;;;;;;5011893;28;20700;-61
2022/10/10 03:00:16;;;;;;;11.00;7.63;;;11.00;99.90;;;;;;5021485;28;20203;-61
2022/10/10 03:02:41;;;;;;;14.50;8.40;;;11.00;99.90;;;;;;5023852;28;20450;-63
2022/10/10 03:05:07;;;;;;;14.20;8.30;;;11.00;99.90;;;;;;5029313;28;20952;-60
2022/10/10 03:07:33;;;;;;;13.33;7.33;;;11.00;99.90;;;;;;5027880;28;20635;-60
2022/10/10 03:09:59;;;;;;;12.53;8.00;;;11.00;99.90;;;;;;5006032;28;20557;-60
2022/10/10 03:12:24;;;;;;;19.07;7.90;;;11.00;99.90;;;;;;5027259;28;20483;-62
2022/10/10 03:14:50;;;;;;;18.03;8.63;;;11.00;99.90;;;;;;5027319;28;20184;-62
2022/10/10 03:17:16;;;;;;;16.90;8.60;;;11.00;99.90;;;;;;5030035;28;20803;-62
2022/10/10 03:19:41;;;;;;;10.03;7.40;;;11.00;99.90;;;;;;5014872;28;20199;-63
2022/10/10 03:22:07;;;;;;;11.30;8.30;;;11.00;99.90;;;;;;5029126;28;20211;-63
2022/10/10 03:24:33;;;;;;;9.90;6.97;;;11.00;99.90;;;;;;5023968;28;20318;-61
2022/10/10 03:26:59;;;;;;;14.20;7.93;;;11.00;99.90;;;;;;5026008;28;20168;-63
2022/10/10 03:29:25;;;;;;;13.47;7.47;;;11.00;99.90;;;;;;5028834;28;20199;-62
2022/10/10 03:31:50;;;;;;;12.93;8.10;;;10.90;99.90;;;;;;5028328;28;20484;-60
2022/10/10 03:34:16;;;;;;;13.13;7.90;;;10.90;99.90;;;;;;5026764;28;20184;-61
2022/10/10 03:36:42;;;;;;;14.60;8.13;;;10.90;99.90;;;;;;5024195;28;20251;-62
2022/10/10 03:39:08;;;;;;;15.17;8.20;;;10.90;99.90;;;;;;5009930;28;20176;-62
2022/10/10 03:41:34;;;;;;;13.50;8.93;;;10.90;99.90;;;;;;5024455;28;20631;-61
2022/10/10 03:44:00;;;;;;;10.90;7.83;;;10.90;99.90;;;;;;5026231;28;22416;-61
2022/10/10 03:46:26;;;;;;;9.93;7.57;;;10.90;99.90;;;;;;5024728;28;20415;-60
2022/10/10 03:48:52;;;;;;;14.30;8.00;;;10.90;99.90;;;;;;5028896;28;20638;-61
2022/10/10 03:51:18;;;;;;;9.13;7.20;;;10.80;99.90;;;;;;5027999;28;20195;-61
2022/10/10 03:53:44;;;;;;;8.60;6.90;;;10.80;99.90;;;;;;5009018;28;20269;-61
2022/10/10 03:56:09;;;;;;;12.47;7.63;;;10.80;99.90;;;;;;5012680;28;20498;-64
2022/10/10 03:58:35;;;;;;;11.17;8.40;;;10.80;99.90;;;;;;5019262;28;20680;-62
2022/10/10 04:01:02;;;;;;;15.63;8.20;;;10.80;99.90;;;;;;5017828;28;20572;-61
2022/10/10 04:03:28;;;;;;;16.73;8.17;;;10.80;99.90;;;;;;5020953;28;20776;-61
2022/10/10 04:05:54;;;;;;;16.80;8.83;;;10.80;99.90;;;;;;5005345;28;20423;-61
2022/10/10 04:08:20;;;;;;;13.83;7.97;;;10.80;99.90;;;;;;5016238;28;20465;-61
2022/10/10 04:10:55;;;;;;;15.17;8.70;;;10.80;99.90;;;;;;5017279;28;20955;-60
2022/10/10 04:13:22;;;;;;;10.27;7.57;;;10.80;99.90;;;;;;5019518;28;20461;-59
2022/10/10 04:15:52;;;;;;;10.83;7.90;;;10.80;99.90;;;;;;5017921;28;20438;-59
2022/10/10 04:18:18;;;;;;;12.80;7.40;;;10.80;99.90;;;;;;5021554;28;20517;-59
2022/10/10 04:20:43;;;;;;;9.80;7.83;;;10.80;99.90;;;;;;5024074;28;21055;-60
2022/10/10 04:23:09;;;;;;;11.97;7.30;;;10.80;99.90;;;;;;5022444;28;20253;-60
2022/10/10 04:25:35;;;;;;;12.40;8.00;;;10.80;99.90;;;;;;5025652;28;20171;-60
2022/10/10 04:28:00;;;;;;;13.03;8.60;;;10.80;99.90;;;;;;5002147;28;20315;-62
2022/10/10 04:30:29;;;;;;;12.30;7.87;;;10.80;99.90;;;;;;5017065;28;20199;-60
2022/10/10 04:32:55;;;;;;;9.20;7.20;;;10.80;99.90;;;;;;5013317;28;20681;-60
2022/10/10 04:35:21;;;;;;;15.63;9.27;;;10.80;99.90;;;;;;5020527;28;20435;-60
2022/10/10 04:37:46;;;;;;;11.87;7.50;;;10.80;99.90;;;;;;5016779;28;20261;-59
2022/10/10 04:40:12;;;;;;;19.93;7.87;;;10.80;99.90;;;;;;5017879;28;20207;-60
2022/10/10 04:42:37;;;;;;;11.77;8.40;;;10.70;99.90;;;;;;5019093;28;20757;-60
2022/10/10 04:45:03;;;;;;;11.70;7.93;;;10.70;99.90;;;;;;5020389;28;20175;-61
2022/10/10 04:47:29;;;;;;;11.90;8.30;;;10.70;99.90;;;;;;5016978;28;20548;-58
2022/10/10 04:49:55;;;;;;;10.43;7.83;;;10.70;99.90;;;;;;5024027;28;20187;-58
2022/10/10 04:52:20;;;;;;;11.73;7.90;;;10.70;99.90;;;;;;5022978;28;20283;-59
2022/10/10 04:54:46;;;;;;;11.37;8.70;;;10.70;99.90;;;;;;5023118;28;20168;-58
2022/10/10 04:57:11;;;;;;;11.93;8.63;;;10.70;99.90;;;;;;5011690;28;20260;-59
2022/10/10 04:59:37;;;;;;;11.27;7.87;;;10.70;99.90;;;;;;5004786;28;20275;-59
2022/10/10 05:02:03;;;;;;;12.27;8.10;;;10.70;99.90;;;;;;5019447;28;20199;-59
2022/10/10 05:04:28;;;;;;;10.63;7.73;;;10.70;99.90;;;;;;5020808;28;20177;-58
2022/10/10 05:06:54;;;;;;;9.90;7.80;;;10.70;99.90;;;;;;5014835;28;20246;-61
2022/10/10 05:09:19;;;;;;;10.70;8.03;;;10.70;99.90;;;;;;5005010;28;20529;-60
2022/10/10 05:11:45;;;;;;;15.57;9.03;;;10.70;99.90;;;;;;5007852;28;20705;-58
2022/10/10 05:14:10;;;;;;;17.97;8.33;;;10.70;99.90;;;;;;5025215;28;20245;-59
2022/10/10 05:16:36;;;;;;;13.17;8.50;;;10.70;99.90;;;;;;5017117;28;20195;-59
2022/10/10 05:19:03;;;;;;;16.47;7.70;;;10.70;99.90;;;;;;5021867;28;20269;-57
2022/10/10 05:21:28;;;;;;;13.70;8.30;;;10.70;99.90;;;;;;5007394;28;20929;-57
2022/10/10 05:23:54;;;;;;;18.67;8.13;;;10.70;99.90;;;;;;5006906;28;20176;-60
2022/10/10 05:26:20;;;;;;;10.70;8.60;;;10.70;99.90;;;;;;5030778;28;20192;-60
2022/10/10 05:28:46;;;;;;;11.70;8.17;;;10.70;99.90;;;;;;5029061;28;20231;-59
2022/10/10 05:31:12;;;;;;;14.00;8.40;;;10.70;99.90;;;;;;5025813;28;20450;-60
2022/10/10 05:33:37;;;;;;;11.33;8.37;;;10.70;99.90;;;;;;5024849;28;20504;-59
2022/10/10 05:36:12;;;;;;;10.73;8.67;;;10.70;99.90;;;;;;5023255;28;20218;-58
2022/10/10 05:38:39;;;;;;;16.23;8.37;;;10.70;99.90;;;;;;5024131;28;20233;-60
2022/10/10 05:41:05;;;;;;;13.10;8.43;;;10.70;99.90;;;;;;5011670;28;20529;-60
2022/10/10 05:43:31;;;;;;;11.87;7.93;;;10.80;99.90;;;;;;5024427;28;20489;-61
2022/10/10 05:45:57;;;;;;;9.40;7.87;;;10.70;99.90;;;;;;5025804;28;20434;-60
2022/10/10 05:48:23;;;;;;;15.07;8.97;;;10.80;99.90;;;;;;5023707;28;20373;-62
2022/10/10 05:50:53;;;;;;;12.13;8.87;;;10.80;99.90;;;;;;5020581;28;20822;-63
2022/10/10 05:53:20;;;;;;;9.87;7.80;;;10.80;99.90;;;;;;5016796;28;20438;-61
2022/10/10 05:55:46;;;;;;;10.60;8.57;;;10.80;99.90;;;;;;5027764;28;20445;-62
2022/10/10 05:58:14;;;;;;;18.40;9.00;;;10.80;99.90;;;;;;5028617;28;20434;-63
2022/10/10 06:00:42;;;;;;;15.10;8.60;;;10.80;99.90;;;;;;5027973;28;20195;-64
2022/10/10 06:03:12;;;;;;;12.40;8.93;;;10.80;99.90;;;;;;5011368;28;20461;-63
2022/10/10 06:05:42;;;;;;;13.67;8.07;;;10.70;99.90;;;;;;5028564;28;20883;-63
2022/10/10 06:08:07;;;;;;;10.70;8.17;;;10.70;99.90;;;;;;5013374;28;21157;-65
2022/10/10 06:10:37;;;;;;;16.27;9.27;;;10.70;99.90;;;;;;5029592;28;20545;-63
2022/10/10 06:13:03;;;;;;;13.90;8.83;;;10.70;99.90;;;;;;5018514;28;20682;-64
2022/10/10 06:15:29;;;;;;;17.77;8.87;;;10.70;99.90;;;;;;5002358;28;20863;-64
2022/10/10 06:17:55;;;;;;;18.07;9.80;;;10.80;99.90;;;;;;5031355;28;20407;-64
2022/10/10 06:20:21;;;;;;;14.57;9.50;;;10.80;99.90;;;;;;5028118;28;20195;-64
2022/10/10 06:22:46;;;;;;;14.40;10.17;;;10.80;99.90;;;;;;5025375;28;20211;-63
2022/10/10 06:25:12;;;;;;;22.60;10.57;;;10.90;99.90;;;;;;5029985;28;20180;-64
2022/10/10 06:27:38;;;;;;;16.30;9.37;;;10.90;99.90;;;;;;5029999;28;20729;-64
2022/10/10 06:30:04;;;;;;;16.10;10.13;;;10.90;99.90;;;;;;5030195;28;20218;-60
2022/10/10 06:32:29;;;;;;;15.17;9.83;;;10.90;99.90;;;;;;5030519;28;20776;-61
2022/10/10 06:34:55;;;;;;;210.17;103.03;;;10.90;99.90;;;;;;5030886;28;20407;-61
2022/10/10 06:37:21;;;;;;;136.10;68.40;;;11.00;99.90;;;;;;5028994;28;20184;-62
2022/10/10 06:39:46;;;;;;;20.77;12.70;;;11.00;99.90;;;;;;5027567;28;20565;-63
2022/10/10 06:42:12;;;;;;;14.13;9.60;;;11.10;99.90;;;;;;5026542;28;20294;-63
2022/10/10 06:44:37;;;;;;;13.07;9.27;;;11.10;99.90;;;;;;5030739;28;20168;-63
2022/10/10 06:47:03;;;;;;;14.17;9.50;;;11.10;99.90;;;;;;5030617;28;20250;-63
2022/10/10 06:49:29;;;;;;;14.23;9.17;;;11.20;99.90;;;;;;5029185;28;20184;-64
2022/10/10 06:51:54;;;;;;;13.17;9.60;;;11.20;99.90;;;;;;5028310;28;20203;-64
2022/10/10 06:54:20;;;;;;;13.53;9.53;;;11.20;99.90;;;;;;5030414;28;20748;-65
2022/10/10 06:56:46;;;;;;;15.23;9.60;;;11.20;99.90;;;;;;5011582;28;20186;-62
2022/10/10 06:59:11;;;;;;;15.27;10.63;;;11.30;99.90;;;;;;5028823;28;20610;-63
2022/10/10 07:01:37;;;;;;;14.03;10.00;;;11.30;99.90;;;;;;5028686;28;20245;-63
2022/10/10 07:04:04;;;;;;;14.73;9.50;;;11.40;99.90;;;;;;5029468;28;20172;-62
2022/10/10 07:06:30;;;;;;;14.93;9.70;;;11.40;99.90;;;;;;5028940;28;20828;-64
2022/10/10 07:08:57;;;;;;;25.43;10.47;;;11.40;99.90;;;;;;5030077;28;20897;-65
2022/10/10 07:11:24;;;;;;;19.67;10.43;;;11.50;99.90;;;;;;5026597;28;20457;-62
2022/10/10 07:13:51;;;;;;;21.00;11.13;;;11.50;99.90;;;;;;5010333;28;20437;-63
2022/10/10 07:16:17;;;;;;;15.60;10.90;;;11.50;99.90;;;;;;5028527;28;20434;-62
2022/10/10 07:18:43;;;;;;;19.77;10.60;;;11.40;99.90;;;;;;5029813;28;20445;-65
2022/10/10 07:21:09;;;;;;;18.63;11.07;;;11.50;99.90;;;;;;5011883;28;20667;-66
2022/10/10 07:23:35;;;;;;;18.37;10.87;;;11.50;99.90;;;;;;5027803;28;20172;-64
2022/10/10 07:26:04;;;;;;;17.60;9.83;;;11.50;99.90;;;;;;5011700;28;20967;-62
2022/10/10 07:28:30;;;;;;;15.80;10.43;;;11.50;99.90;;;;;;5026746;28;20410;-65
2022/10/10 07:31:02;;;;;;;21.47;10.10;;;11.50;99.90;;;;;;5028287;28;20441;-64
2022/10/10 07:33:37;;;;;;;14.30;9.20;;;11.50;99.90;;;;;;5026492;28;20183;-64
2022/10/10 07:36:03;;;;;;;18.33;9.23;;;11.50;99.90;;;;;;5018911;28;20415;-63
2022/10/10 07:38:29;;;;;;;15.23;10.17;;;11.50;99.90;;;;;;5022506;28;20430;-65
2022/10/10 07:40:55;;;;;;;16.30;10.40;;;11.50;99.90;;;;;;5027514;28;20561;-64
2022/10/10 07:43:20;;;;;;;16.40;9.57;;;11.60;99.90;;;;;;5030157;28;20184;-63
2022/10/10 07:45:46;;;;;;;17.33;10.57;;;11.50;99.90;;;;;;5031124;28;20583;-63
2022/10/10 07:48:11;;;;;;;12.27;9.70;;;11.60;99.90;;;;;;5013842;28;20176;-65
2022/10/10 07:50:43;;;;;;;19.50;9.50;;;11.60;99.90;;;;;;5022441;28;20183;-62
2022/10/10 07:53:10;;;;;;;16.60;9.20;;;11.60;99.90;;;;;;5027252;28;20233;-62
2022/10/10 07:55:40;;;;;;;24.90;14.47;;;11.70;99.90;;;;;;5028627;28;20438;-61
2022/10/10 07:58:06;;;;;;;387.43;223.40;;;11.70;99.90;;;;;;5028966;28;20820;-62
2022/10/10 08:00:32;;;;;;;30.20;16.73;;;11.80;99.90;;;;;;5028481;28;20457;-62
2022/10/10 08:02:58;;;;;;;21.57;13.23;;;11.80;99.90;;;;;;5027521;28;20225;-63
2022/10/10 08:05:24;;;;;;;29.67;12.60;;;11.90;99.90;;;;;;5026224;28;20423;-63
2022/10/10 08:07:49;;;;;;;25.90;13.50;;;11.90;99.90;;;;;;5010384;28;20175;-63
2022/10/10 08:10:15;;;;;;;24.70;13.40;;;12.00;99.90;;;;;;5014523;28;20973;-64
2022/10/10 08:12:41;;;;;;;19.60;11.77;;;12.00;99.90;;;;;;5024665;28;20239;-64
2022/10/10 08:15:07;;;;;;;24.43;13.33;;;12.10;99.90;;;;;;5026576;28;20183;-64
2022/10/10 08:17:32;;;;;;;26.83;14.50;;;12.10;99.90;;;;;;5008900;28;20738;-61
2022/10/10 08:19:58;;;;;;;25.67;13.50;;;12.10;99.90;;;;;;5028581;28;20552;-63
2022/10/10 08:22:24;;;;;;;47.43;24.90;;;12.10;99.90;;;;;;5028897;28;20594;-64
2022/10/10 08:24:49;;;;;;;28.70;14.30;;;12.20;99.90;;;;;;5025867;28;20530;-64
2022/10/10 08:27:16;;;;;;;21.87;13.77;;;12.20;99.90;;;;;;5027056;28;20187;-61
2022/10/10 08:29:42;;;;;;;24.13;13.93;;;12.20;99.90;;;;;;5028731;28;20646;-64
2022/10/10 08:32:08;;;;;;;25.93;13.87;;;12.20;99.90;;;;;;5026650;28;20537;-64
2022/10/10 08:34:34;;;;;;;28.63;14.40;;;12.20;99.90;;;;;;5007775;28;20521;-63
2022/10/10 08:36:59;;;;;;;24.00;14.40;;;12.20;99.90;;;;;;5021877;28;20257;-62
2022/10/10 08:39:25;;;;;;;23.97;13.43;;;12.30;99.90;;;;;;5028601;28;20266;-63
2022/10/10 08:42:00;;;;;;;24.80;14.30;;;12.30;99.90;;;;;;5025699;28;20207;-63
2022/10/10 08:44:51;;;;;;;20.30;13.37;;;12.20;99.90;;;;;;5021765;28;20190;-64
2022/10/10 08:47:35;;;;;;;22.33;14.13;;;12.30;99.90;;;;;;5028058;28;20433;-61
2022/10/10 08:50:05;;;;;;;24.10;13.93;;;12.30;99.90;;;;;;5014795;28;20434;-61
2022/10/10 08:52:55;;;;;;;24.63;14.20;;;12.30;99.90;;;;;;5027554;28;20885;-61
2022/10/10 08:55:32;;;;;;;23.67;13.17;;;12.30;99.90;;;;;;5027644;28;20442;-62
2022/10/10 08:58:29;;;;;;;21.80;13.70;;;12.40;99.90;;;;;;5010346;28;20975;-63
2022/10/10 09:01:04;;;;;;;23.13;12.87;;;12.40;99.90;;;;;;5021656;28;20490;-62
2022/10/10 09:03:46;;;;;;;22.37;14.60;;;12.40;99.90;;;;;;5025317;28;20446;-63
2022/10/10 09:06:17;;;;;;;25.37;15.23;;;12.50;99.90;;;;;;5027963;28;20422;-61
2022/10/10 09:08:58;;;;;;;26.03;13.90;;;12.50;99.90;;;;;;5012996;28;20442;-62
2022/10/10 09:11:38;;;;;;;26.60;13.33;;;12.50;99.90;;;;;;5009287;28;21142;-64
2022/10/10 09:14:18;;;;;;;29.93;13.63;;;12.50;99.90;;;;;;5025107;28;20796;-63
2022/10/10 09:17:28;;;;;;;33.10;16.13;;;12.50;99.90;;;;;;5022373;28;20462;-64
2022/10/10 09:20:21;;;;;;;25.67;14.67;;;12.60;99.90;;;;;;5016712;28;20508;-63
2022/10/10 09:23:17;;;;;;;27.00;14.20;;;12.60;99.90;;;;;;5007916;28;20420;-61
2022/10/10 09:25:53;;;;;;;25.00;14.07;;;12.70;99.90;;;;;;5006839;28;20438;-63
2022/10/10 09:28:25;;;;;;;23.90;13.77;;;12.70;99.90;;;;;;5028143;28;20425;-61
2022/10/10 09:30:55;;;;;;;37.00;14.53;;;12.70;99.90;;;;;;5021647;28;20891;-62
2022/10/10 09:33:52;;;;;;;121.97;62.10;;;12.80;99.90;;;;;;5023411;28;20430;-61
2022/10/10 09:36:23;;;;;;;43.27;22.53;;;12.80;99.90;;;;;;5012094;28;20441;-60
2022/10/10 09:38:54;;;;;;;25.73;15.77;;;12.80;99.90;;;;;;5012433;28;20461;-60
2022/10/10 09:41:42;;;;;;;23.00;13.80;;;12.80;99.90;;;;;;5012961;28;20791;-62
2022/10/10 09:44:13;;;;;;;24.60;14.50;;;12.90;99.90;;;;;;5024680;28;20422;-62
2022/10/10 09:46:39;;;;;;;22.70;13.27;;;12.90;99.90;;;;;;5010696;28;20419;-61
2022/10/10 09:49:05;;;;;;;23.40;12.60;;;12.90;99.90;;;;;;5026506;28;20760;-62
2022/10/10 09:51:32;;;;;;;26.30;13.30;;;13.00;99.90;;;;;;5030837;28;20215;-60
2022/10/10 09:53:58;;;;;;;19.43;12.43;;;13.10;99.90;;;;;;5026604;28;20837;-62
2022/10/10 09:56:28;;;;;;;22.03;12.60;;;13.10;99.90;;;;;;5025417;28;20443;-62
2022/10/10 09:58:55;;;;;;;18.97;13.10;;;13.20;99.90;;;;;;5027686;28;20441;-62
2022/10/10 10:01:27;;;;;;;28.20;12.47;;;13.30;99.90;;;;;;5027376;28;20474;-63
2022/10/10 10:04:17;;;;;;;18.83;11.70;;;13.50;99.90;;;;;;5005373;28;21070;-62
2022/10/10 10:06:50;;;;;;;20.20;11.93;;;13.60;99.90;;;;;;5024613;28;20430;-62
2022/10/10 10:09:22;;;;;;;24.23;12.40;;;13.70;99.90;;;;;;5025126;28;20534;-62
2022/10/10 10:11:54;;;;;;;21.67;13.00;;;13.80;99.90;;;;;;5026492;28;20540;-61
2022/10/10 10:14:26;;;;;;;15.47;10.53;;;13.90;99.90;;;;;;5031314;28;20433;-62
2022/10/10 10:16:54;;;;;;;17.13;10.20;;;14.00;99.90;;;;;;5013252;28;20408;-62
2022/10/10 10:19:34;;;;;;;15.93;10.80;;;14.10;99.90;;;;;;5028116;28;20521;-60
2022/10/10 10:22:00;;;;;;;19.03;11.10;;;14.30;99.90;;;;;;5030645;28;20537;-63
2022/10/10 10:24:35;;;;;;;20.60;11.30;;;14.50;99.90;;;;;;5029791;28;20937;-62
2022/10/10 10:27:17;;;;;;;438.53;213.50;;;14.70;99.90;;;;;;5026256;28;20222;-61
2022/10/10 10:30:01;;;;;;;107.63;50.63;;;14.80;99.90;;;;;;5018724;28;20426;-63
2022/10/10 10:32:58;;;;;;;17.07;11.10;;;14.90;99.90;;;;;;5016428;28;20524;-62
2022/10/10 10:35:34;;;;;;;15.10;10.67;;;14.90;99.90;;;;;;5015528;28;20434;-63
2022/10/10 10:38:28;;;;;;;18.87;10.00;;;14.90;99.90;;;;;;5011278;28;20422;-63
2022/10/10 10:41:07;;;;;;;14.70;9.67;;;14.90;99.90;;;;;;5025394;28;20465;-61
2022/10/10 10:43:45;;;;;;;16.30;10.30;;;15.00;99.90;;;;;;5028755;28;20430;-61
2022/10/10 10:46:46;;;;;;;12.50;9.20;;;15.10;99.90;;;;;;5029474;28;20496;-62
2022/10/10 10:49:19;;;;;;;17.90;11.17;;;15.40;99.90;;;;;;4977701;28;20906;-61
2022/10/10 10:51:51;;;;;;;14.33;11.00;;;15.60;99.90;;;;;;5029781;28;20477;-63
2022/10/10 10:54:43;;;;;;;16.37;9.30;;;15.70;99.90;;;;;;5026507;28;20473;-62
2022/10/10 10:57:12;;;;;;;18.30;9.10;;;15.90;99.90;;;;;;5025615;28;20415;-62
2022/10/10 11:00:02;;;;;;;14.40;8.37;;;16.20;99.90;;;;;;5029893;28;20507;-63
2022/10/10 11:03:02;;;;;;;22.73;8.50;;;16.70;99.90;;;;;;5009916;28;20906;-63
2022/10/10 11:05:36;;;;;;;11.57;8.00;;;17.10;99.90;;;;;;5025747;28;20434;-64
2022/10/10 11:08:23;;;;;;;12.80;7.30;;;17.30;99.90;;;;;;5029619;28;20434;-62
2022/10/10 11:11:13;;;;;;;10.60;7.33;;;17.60;99.90;;;;;;5009052;28;20442;-60
2022/10/10 11:14:05;;;;;;;11.60;8.03;;;17.80;99.90;;;;;;5030205;28;20557;-64
2022/10/10 11:19:27;;;;;;;13.40;7.40;;;18.90;98.20;;;;;;5013945;28;20471;-63
2022/10/10 11:22:09;;;;;;;8.00;5.40;;;19.40;92.80;;;;;;5014949;28;20462;-63
2022/10/10 11:24:43;;;;;;;8.83;6.50;;;19.90;92.30;;;;;;5008148;28;20427;-63
2022/10/10 11:27:17;;;;;;;12.87;6.40;;;20.30;81.10;;;;;;5014700;28;20509;-64
2022/10/10 11:30:04;;;;;;;9.97;6.10;;;20.70;80.30;;;;;;5028455;28;20453;-64
2022/10/10 11:32:35;;;;;;;11.03;6.17;;;21.10;73.40;;;;;;5030033;28;20445;-64
2022/10/10 11:35:21;;;;;;;8.60;5.37;;;21.50;72.20;;;;;;5033659;28;20464;-64
2022/10/10 11:37:55;;;;;;;8.73;5.30;;;22.00;73.10;;;;;;5030964;28;20441;-64
2022/10/10 11:40:43;;;;;;;9.87;4.80;;;22.50;65.10;;;;;;5029086;28;20462;-65
2022/10/10 11:43:18;;;;;;;12.60;5.00;;;22.90;63.00;;;;;;5022273;28;20954;-64
2022/10/10 11:45:47;;;;;;;9.53;5.03;;;23.30;60.00;;;;;;5013701;28;20465;-64
2022/10/10 11:48:42;;;;;;;7.33;4.33;;;23.40;58.80;;;;;;5031442;28;20340;-64
2022/10/10 11:51:35;;;;;;;13.63;4.83;;;23.60;57.60;;;;;;5011232;28;20643;-64
2022/10/10 11:54:07;;;;;;;7.93;4.50;;;23.90;58.10;;;;;;5029104;28;20207;-64
2022/10/10 11:56:38;;;;;;;9.20;4.60;;;24.10;55.90;;;;;;5029169;28;20607;-64
2022/10/10 11:59:14;;;;;;;11.27;4.10;;;24.20;55.20;;;;;;5030954;28;20195;-63
2022/10/10 12:01:53;;;;;;;7.27;4.63;;;24.10;54.60;;;;;;5025479;28;20199;-64
2022/10/10 12:04:20;;;;;;;8.90;4.70;;;24.10;54.80;;;;;;5016407;28;20206;-64
2022/10/10 12:07:02;;;;;;;7.73;4.60;;;23.90;54.00;;;;;;5028218;28;20645;-64
2022/10/10 12:09:37;;;;;;;15.23;4.23;;;23.60;54.20;;;;;;5027614;28;20167;-63
2022/10/10 12:12:28;;;;;;;14.97;4.03;;;23.50;55.00;;;;;;5012681;28;20209;-64
2022/10/10 12:14:59;;;;;;;5.73;3.30;;;23.50;55.40;;;;;;5012574;28;20254;-63
2022/10/10 12:17:30;;;;;;;11.80;4.07;;;23.60;55.50;;;;;;5025681;28;20476;-63
2022/10/10 12:20:29;;;;;;;11.30;4.13;;;23.70;55.60;;;;;;5014980;28;20514;-64
2022/10/10 12:23:13;;;;;;;7.07;4.20;;;23.70;54.60;;;;;;5019272;28;20754;-63
2022/10/10 12:25:41;;;;;;;8.63;4.00;;;23.70;55.10;;;;;;5027374;28;20426;-64
2022/10/10 12:28:13;;;;;;;10.50;4.70;;;23.70;55.80;;;;;;5024168;28;21107;-63
2022/10/10 12:30:54;;;;;;;11.83;3.97;;;23.80;56.50;;;;;;5028011;28;20433;-64
2022/10/10 12:33:31;;;;;;;10.03;4.00;;;23.90;56.70;;;;;;5029731;28;20414;-63
2022/10/10 12:36:17;;;;;;;12.93;4.23;;;23.90;55.40;;;;;;5022883;28;20430;-63
2022/10/10 12:39:08;;;;;;;9.80;4.50;;;24.10;55.90;;;;;;5017229;28;20449;-63
2022/10/10 12:41:53;;;;;;;9.00;4.13;;;24.00;55.30;;;;;;5023724;28;20646;-63
2022/10/10 12:44:33;;;;;;;8.97;4.20;;;24.00;55.30;;;;;;5027341;28;20409;-64
2022/10/10 12:47:14;;;;;;;12.17;4.17;;;24.00;55.00;;;;;;5029512;28;20464;-63
2022/10/10 12:49:49;;;;;;;17.80;4.17;;;24.00;55.50;;;;;;5029469;28;20402;-65
2022/10/10 12:52:43;;;;;;;8.60;3.70;;;24.10;56.00;;;;;;5024862;28;20958;-63
2022/10/10 12:55:21;;;;;;;9.33;4.20;;;24.10;54.70;;;;;;5019281;28;20422;-64
2022/10/10 12:57:50;;;;;;;9.77;4.53;;;24.20;54.50;;;;;;5021964;28;20465;-63
2022/10/10 13:00:34;;;;;;;8.97;4.00;;;24.20;55.10;;;;;;5029746;28;20478;-64